sensor_id;sensor_type;location;lat;lon;timestamp;temperature;humidity
56538;DHT22;42435;53.292;6.000;2023-02-23T00:01:12;8.90;83.50
56538;DHT22;42435;53.292;6.000;2023-02-23T00:03:38;8.90;83.60
56538;DHT22;42435;53.292;6.000;2023-02-23T00:06:06;8.90;83.60
56538;DHT22;42435;53.292;6.000;2023-02-23T00:08:32;8.90;83.60
56538;DHT22;42435;53.292;6.000;2023-02-23T00:11:05;8.90;83.60
56538;DHT22;42435;53.292;6.000;2023-02-23T00:13:32;8.90;83.70
56538;DHT22;42435;53.292;6.000;2023-02-23T00:16:12;8.90;83.70
56538;DHT22;42435;53.292;6.000;2023-02-23T00:18:46;8.90;83.70
56538;DHT22;42435;53.292;6.000;2023-02-23T00:21:20;8.90;83.70
56538;DHT22;42435;53.292;6.000;2023-02-23T00:23:55;8.80;83.70
56538;DHT22;42435;53.292;6.000;2023-02-23T00:26:24;8.90;83.80
56538;DHT22;42435;53.292;6.000;2023-02-23T00:28:52;8.90;83.70
56538;DHT22;42435;53.292;6.000;2023-02-23T00:31:19;8.90;83.70
56538;DHT22;42435;53.292;6.000;2023-02-23T00:33:52;8.90;83.70
56538;DHT22;42435;53.292;6.000;2023-02-23T00:36:20;8.90;83.70
56538;DHT22;42435;53.292;6.000;2023-02-23T00:38:46;8.80;83.70
56538;DHT22;42435;53.292;6.000;2023-02-23T00:41:13;8.80;83.70
56538;DHT22;42435;53.292;6.000;2023-02-23T00:43:44;8.90;83.70
56538;DHT22;42435;53.292;6.000;2023-02-23T00:46:13;8.80;83.70
56538;DHT22;42435;53.292;6.000;2023-02-23T00:48:41;8.80;83.70
56538;DHT22;42435;53.292;6.000;2023-02-23T00:51:06;8.80;83.70
56538;DHT22;42435;53.292;6.000;2023-02-23T00:53:32;8.80;83.80
56538;DHT22;42435;53.292;6.000;2023-02-23T00:55:58;8.80;83.80
56538;DHT22;42435;53.292;6.000;2023-02-23T00:58:25;8.80;83.80
56538;DHT22;42435;53.292;6.000;2023-02-23T01:00:51;8.80;83.80
56538;DHT22;42435;53.292;6.000;2023-02-23T01:03:17;8.80;83.80
56538;DHT22;42435;53.292;6.000;2023-02-23T01:05:43;8.80;83.80
56538;DHT22;42435;53.292;6.000;2023-02-23T01:08:10;8.90;83.80
56538;DHT22;42435;53.292;6.000;2023-02-23T01:10:41;8.90;83.80
56538;DHT22;42435;53.292;6.000;2023-02-23T01:13:10;8.90;83.90
56538;DHT22;42435;53.292;6.000;2023-02-23T01:15:42;8.90;83.90
56538;DHT22;42435;53.292;6.000;2023-02-23T01:18:10;8.90;83.80
56538;DHT22;42435;53.292;6.000;2023-02-23T01:20:36;8.90;83.80
56538;DHT22;42435;53.292;6.000;2023-02-23T01:23:03;8.90;83.80
56538;DHT22;42435;53.292;6.000;2023-02-23T01:25:29;8.90;83.80
56538;DHT22;42435;53.292;6.000;2023-02-23T01:27:56;8.90;83.80
56538;DHT22;42435;53.292;6.000;2023-02-23T01:30:21;8.90;83.80
56538;DHT22;42435;53.292;6.000;2023-02-23T01:32:47;8.90;83.80
56538;DHT22;42435;53.292;6.000;2023-02-23T01:35:13;9.00;83.80
56538;DHT22;42435;53.292;6.000;2023-02-23T01:37:40;9.00;83.80
56538;DHT22;42435;53.292;6.000;2023-02-23T01:40:19;8.90;83.80
56538;DHT22;42435;53.292;6.000;2023-02-23T01:43:09;8.90;83.70
56538;DHT22;42435;53.292;6.000;2023-02-23T01:45:37;8.90;83.70
56538;DHT22;42435;53.292;6.000;2023-02-23T01:48:14;8.90;83.70
56538;DHT22;42435;53.292;6.000;2023-02-23T01:51:01;8.90;83.70
56538;DHT22;42435;53.292;6.000;2023-02-23T01:53:30;8.90;83.80
56538;DHT22;42435;53.292;6.000;2023-02-23T01:56:02;9.00;83.70
56538;DHT22;42435;53.292;6.000;2023-02-23T01:58:31;9.00;83.70
56538;DHT22;42435;53.292;6.000;2023-02-23T02:00:59;8.90;83.70
56538;DHT22;42435;53.292;6.000;2023-02-23T02:03:35;8.90;83.70
56538;DHT22;42435;53.292;6.000;2023-02-23T02:06:03;8.90;83.80
56538;DHT22;42435;53.292;6.000;2023-02-23T02:08:33;8.90;83.80
56538;DHT22;42435;53.292;6.000;2023-02-23T02:10:59;8.90;83.90
56538;DHT22;42435;53.292;6.000;2023-02-23T02:13:30;8.90;83.80
56538;DHT22;42435;53.292;6.000;2023-02-23T02:18:50;8.90;83.90
56538;DHT22;42435;53.292;6.000;2023-02-23T02:27:32;8.90;83.90
56538;DHT22;42435;53.292;6.000;2023-02-23T02:31:35;8.90;83.90
56538;DHT22;42435;53.292;6.000;2023-02-23T02:38:52;8.90;83.80
56538;DHT22;42435;53.292;6.000;2023-02-23T02:41:59;8.90;83.90
56538;DHT22;42435;53.292;6.000;2023-02-23T02:47:14;8.90;83.90
56538;DHT22;42435;53.292;6.000;2023-02-23T02:49:51;8.90;83.90
56538;DHT22;42435;53.292;6.000;2023-02-23T02:52:44;8.90;83.90
56538;DHT22;42435;53.292;6.000;2023-02-23T02:55:21;8.90;83.90
56538;DHT22;42435;53.292;6.000;2023-02-23T02:57:49;8.90;83.80
56538;DHT22;42435;53.292;6.000;2023-02-23T03:00:29;8.90;83.80
56538;DHT22;42435;53.292;6.000;2023-02-23T03:06:26;8.90;83.80
56538;DHT22;42435;53.292;6.000;2023-02-23T03:15:40;8.90;83.70
56538;DHT22;42435;53.292;6.000;2023-02-23T03:22:06;8.90;83.70
56538;DHT22;42435;53.292;6.000;2023-02-23T03:24:58;8.90;83.70
56538;DHT22;42435;53.292;6.000;2023-02-23T03:31:13;8.90;83.60
56538;DHT22;42435;53.292;6.000;2023-02-23T03:42:58;8.90;83.50
56538;DHT22;42435;53.292;6.000;2023-02-23T03:45:45;8.90;83.50
56538;DHT22;42435;53.292;6.000;2023-02-23T03:48:32;8.90;83.60
56538;DHT22;42435;53.292;6.000;2023-02-23T03:51:18;8.90;83.60
56538;DHT22;42435;53.292;6.000;2023-02-23T03:54:11;8.90;83.50
56538;DHT22;42435;53.292;6.000;2023-02-23T03:56:59;8.90;83.50
56538;DHT22;42435;53.292;6.000;2023-02-23T03:59:49;8.90;83.50
56538;DHT22;42435;53.292;6.000;2023-02-23T04:02:37;8.90;83.50
56538;DHT22;42435;53.292;6.000;2023-02-23T04:05:23;8.90;83.40
56538;DHT22;42435;53.292;6.000;2023-02-23T04:08:11;8.90;83.50
56538;DHT22;42435;53.292;6.000;2023-02-23T04:11:10;8.90;83.50
56538;DHT22;42435;53.292;6.000;2023-02-23T04:14:00;9.00;83.50
56538;DHT22;42435;53.292;6.000;2023-02-23T04:16:29;9.00;83.30
56538;DHT22;42435;53.292;6.000;2023-02-23T04:18:56;9.00;83.30
56538;DHT22;42435;53.292;6.000;2023-02-23T04:21:22;8.90;83.30
56538;DHT22;42435;53.292;6.000;2023-02-23T04:23:48;8.90;83.30
56538;DHT22;42435;53.292;6.000;2023-02-23T04:26:13;8.90;83.40
56538;DHT22;42435;53.292;6.000;2023-02-23T04:28:39;8.90;83.40
56538;DHT22;42435;53.292;6.000;2023-02-23T04:31:04;8.90;83.40
56538;DHT22;42435;53.292;6.000;2023-02-23T04:33:30;8.90;83.40
56538;DHT22;42435;53.292;6.000;2023-02-23T04:35:56;8.80;83.50
56538;DHT22;42435;53.292;6.000;2023-02-23T04:38:22;8.90;83.50
56538;DHT22;42435;53.292;6.000;2023-02-23T04:40:48;8.80;83.50
56538;DHT22;42435;53.292;6.000;2023-02-23T04:43:14;8.80;83.50
56538;DHT22;42435;53.292;6.000;2023-02-23T04:45:40;8.80;83.60
56538;DHT22;42435;53.292;6.000;2023-02-23T04:48:06;8.80;83.50
56538;DHT22;42435;53.292;6.000;2023-02-23T04:50:31;8.80;83.50
56538;DHT22;42435;53.292;6.000;2023-02-23T04:52:57;8.80;83.50
56538;DHT22;42435;53.292;6.000;2023-02-23T04:55:24;8.80;83.50
56538;DHT22;42435;53.292;6.000;2023-02-23T04:57:51;8.80;83.50
56538;DHT22;42435;53.292;6.000;2023-02-23T05:00:17;8.80;83.50
56538;DHT22;42435;53.292;6.000;2023-02-23T05:02:43;8.90;83.50
56538;DHT22;42435;53.292;6.000;2023-02-23T05:05:10;8.80;83.50
56538;DHT22;42435;53.292;6.000;2023-02-23T05:07:37;8.90;83.40
56538;DHT22;42435;53.292;6.000;2023-02-23T05:10:04;8.90;83.30
56538;DHT22;42435;53.292;6.000;2023-02-23T05:12:30;8.90;82.90
56538;DHT22;42435;53.292;6.000;2023-02-23T05:14:56;8.90;82.60
56538;DHT22;42435;53.292;6.000;2023-02-23T05:17:23;8.80;82.40
56538;DHT22;42435;53.292;6.000;2023-02-23T05:19:48;8.80;82.30
56538;DHT22;42435;53.292;6.000;2023-02-23T05:22:14;8.80;82.30
56538;DHT22;42435;53.292;6.000;2023-02-23T05:24:40;8.80;82.30
56538;DHT22;42435;53.292;6.000;2023-02-23T05:27:08;8.70;82.30
56538;DHT22;42435;53.292;6.000;2023-02-23T05:29:34;8.70;82.30
56538;DHT22;42435;53.292;6.000;2023-02-23T05:32:00;8.70;82.20
56538;DHT22;42435;53.292;6.000;2023-02-23T05:34:25;8.70;82.10
56538;DHT22;42435;53.292;6.000;2023-02-23T05:36:51;8.80;82.00
56538;DHT22;42435;53.292;6.000;2023-02-23T05:39:18;8.70;82.00
56538;DHT22;42435;53.292;6.000;2023-02-23T05:41:44;8.70;82.00
56538;DHT22;42435;53.292;6.000;2023-02-23T05:44:10;8.70;81.90
56538;DHT22;42435;53.292;6.000;2023-02-23T05:46:35;8.70;81.80
56538;DHT22;42435;53.292;6.000;2023-02-23T05:49:01;8.80;81.80
56538;DHT22;42435;53.292;6.000;2023-02-23T05:51:29;8.70;81.80
56538;DHT22;42435;53.292;6.000;2023-02-23T05:53:56;8.80;81.70
56538;DHT22;42435;53.292;6.000;2023-02-23T05:56:22;8.70;81.70
56538;DHT22;42435;53.292;6.000;2023-02-23T05:58:49;8.70;81.70
56538;DHT22;42435;53.292;6.000;2023-02-23T06:01:16;8.70;81.70
56538;DHT22;42435;53.292;6.000;2023-02-23T06:03:43;8.80;81.60
56538;DHT22;42435;53.292;6.000;2023-02-23T06:06:09;8.80;81.60
56538;DHT22;42435;53.292;6.000;2023-02-23T06:08:34;8.80;81.60
56538;DHT22;42435;53.292;6.000;2023-02-23T06:11:00;8.80;81.60
56538;DHT22;42435;53.292;6.000;2023-02-23T06:13:26;8.80;81.60
56538;DHT22;42435;53.292;6.000;2023-02-23T06:15:52;8.80;81.50
56538;DHT22;42435;53.292;6.000;2023-02-23T06:18:17;8.80;81.50
56538;DHT22;42435;53.292;6.000;2023-02-23T06:20:43;8.70;81.40
56538;DHT22;42435;53.292;6.000;2023-02-23T06:23:10;8.70;81.30
56538;DHT22;42435;53.292;6.000;2023-02-23T06:25:36;8.70;81.40
56538;DHT22;42435;53.292;6.000;2023-02-23T06:28:02;8.70;81.50
56538;DHT22;42435;53.292;6.000;2023-02-23T06:30:27;8.70;81.60
56538;DHT22;42435;53.292;6.000;2023-02-23T06:32:53;8.70;81.60
56538;DHT22;42435;53.292;6.000;2023-02-23T06:35:19;8.70;81.60
56538;DHT22;42435;53.292;6.000;2023-02-23T06:37:45;8.80;81.50
56538;DHT22;42435;53.292;6.000;2023-02-23T06:40:10;8.80;81.50
56538;DHT22;42435;53.292;6.000;2023-02-23T06:42:36;8.80;81.30
56538;DHT22;42435;53.292;6.000;2023-02-23T06:45:03;8.80;81.30
56538;DHT22;42435;53.292;6.000;2023-02-23T06:47:28;8.80;81.30
56538;DHT22;42435;53.292;6.000;2023-02-23T06:49:54;8.80;81.40
56538;DHT22;42435;53.292;6.000;2023-02-23T06:52:19;8.80;81.30
56538;DHT22;42435;53.292;6.000;2023-02-23T06:54:45;8.80;81.40
56538;DHT22;42435;53.292;6.000;2023-02-23T06:57:12;8.80;81.50
56538;DHT22;42435;53.292;6.000;2023-02-23T06:59:38;8.80;81.50
56538;DHT22;42435;53.292;6.000;2023-02-23T07:02:04;8.80;81.50
56538;DHT22;42435;53.292;6.000;2023-02-23T07:04:30;8.80;81.50
56538;DHT22;42435;53.292;6.000;2023-02-23T07:06:57;8.90;81.50
56538;DHT22;42435;53.292;6.000;2023-02-23T07:09:22;8.80;81.50
56538;DHT22;42435;53.292;6.000;2023-02-23T07:11:48;8.80;81.50
56538;DHT22;42435;53.292;6.000;2023-02-23T07:14:14;8.90;81.40
56538;DHT22;42435;53.292;6.000;2023-02-23T07:16:39;8.90;81.40
56538;DHT22;42435;53.292;6.000;2023-02-23T07:19:05;8.90;81.30
56538;DHT22;42435;53.292;6.000;2023-02-23T07:21:32;8.90;81.20
56538;DHT22;42435;53.292;6.000;2023-02-23T07:23:58;8.90;81.20
56538;DHT22;42435;53.292;6.000;2023-02-23T07:26:24;8.80;81.10
56538;DHT22;42435;53.292;6.000;2023-02-23T07:28:50;8.80;81.20
56538;DHT22;42435;53.292;6.000;2023-02-23T07:31:15;8.80;81.20
56538;DHT22;42435;53.292;6.000;2023-02-23T07:33:44;8.90;81.20
56538;DHT22;42435;53.292;6.000;2023-02-23T07:36:11;8.80;81.20
56538;DHT22;42435;53.292;6.000;2023-02-23T07:38:37;8.90;81.30
56538;DHT22;42435;53.292;6.000;2023-02-23T07:41:03;8.90;81.20
56538;DHT22;42435;53.292;6.000;2023-02-23T07:43:29;8.90;81.20
56538;DHT22;42435;53.292;6.000;2023-02-23T07:45:58;8.90;81.20
56538;DHT22;42435;53.292;6.000;2023-02-23T07:48:25;8.90;81.20
56538;DHT22;42435;53.292;6.000;2023-02-23T07:50:50;8.90;81.20
56538;DHT22;42435;53.292;6.000;2023-02-23T07:53:16;8.90;81.10
56538;DHT22;42435;53.292;6.000;2023-02-23T07:55:42;9.00;81.10
56538;DHT22;42435;53.292;6.000;2023-02-23T07:58:07;8.90;81.10
56538;DHT22;42435;53.292;6.000;2023-02-23T08:00:34;9.00;81.10
56538;DHT22;42435;53.292;6.000;2023-02-23T08:03:03;9.00;81.10
56538;DHT22;42435;53.292;6.000;2023-02-23T08:05:30;9.00;81.10
56538;DHT22;42435;53.292;6.000;2023-02-23T08:07:58;9.00;81.00
56538;DHT22;42435;53.292;6.000;2023-02-23T08:10:25;9.00;81.00
56538;DHT22;42435;53.292;6.000;2023-02-23T08:12:53;9.00;80.90
56538;DHT22;42435;53.292;6.000;2023-02-23T08:15:19;8.90;80.90
56538;DHT22;42435;53.292;6.000;2023-02-23T08:17:45;8.90;80.90
56538;DHT22;42435;53.292;6.000;2023-02-23T08:20:12;8.90;81.00
56538;DHT22;42435;53.292;6.000;2023-02-23T08:22:39;8.90;81.10
56538;DHT22;42435;53.292;6.000;2023-02-23T08:25:07;8.90;81.10
56538;DHT22;42435;53.292;6.000;2023-02-23T08:27:34;8.90;81.20
56538;DHT22;42435;53.292;6.000;2023-02-23T08:30:00;8.90;81.30
56538;DHT22;42435;53.292;6.000;2023-02-23T08:32:30;8.90;81.50
56538;DHT22;42435;53.292;6.000;2023-02-23T08:34:59;8.90;81.60
56538;DHT22;42435;53.292;6.000;2023-02-23T08:37:30;9.00;81.70
56538;DHT22;42435;53.292;6.000;2023-02-23T08:39:57;9.00;81.70
56538;DHT22;42435;53.292;6.000;2023-02-23T08:42:23;9.00;81.70
56538;DHT22;42435;53.292;6.000;2023-02-23T08:44:49;9.10;81.80
56538;DHT22;42435;53.292;6.000;2023-02-23T08:47:15;9.10;81.90
56538;DHT22;42435;53.292;6.000;2023-02-23T08:49:51;9.20;81.90
56538;DHT22;42435;53.292;6.000;2023-02-23T08:52:19;9.20;82.00
56538;DHT22;42435;53.292;6.000;2023-02-23T08:54:45;9.30;82.10
56538;DHT22;42435;53.292;6.000;2023-02-23T08:57:10;9.30;82.20
56538;DHT22;42435;53.292;6.000;2023-02-23T08:59:36;9.40;82.30
56538;DHT22;42435;53.292;6.000;2023-02-23T09:02:04;9.40;82.30
56538;DHT22;42435;53.292;6.000;2023-02-23T09:04:33;9.50;82.30
56538;DHT22;42435;53.292;6.000;2023-02-23T09:07:00;9.50;82.20
56538;DHT22;42435;53.292;6.000;2023-02-23T09:09:26;9.50;82.20
56538;DHT22;42435;53.292;6.000;2023-02-23T09:11:51;9.60;82.20
56538;DHT22;42435;53.292;6.000;2023-02-23T09:14:18;9.70;82.20
56538;DHT22;42435;53.292;6.000;2023-02-23T09:16:43;9.70;82.20
56538;DHT22;42435;53.292;6.000;2023-02-23T09:19:09;9.80;82.10
56538;DHT22;42435;53.292;6.000;2023-02-23T09:21:35;9.90;82.00
56538;DHT22;42435;53.292;6.000;2023-02-23T09:24:01;9.90;81.90
56538;DHT22;42435;53.292;6.000;2023-02-23T09:26:26;9.90;81.80
56538;DHT22;42435;53.292;6.000;2023-02-23T09:28:54;10.00;81.70
56538;DHT22;42435;53.292;6.000;2023-02-23T09:31:21;10.00;81.60
56538;DHT22;42435;53.292;6.000;2023-02-23T09:33:48;10.00;81.50
56538;DHT22;42435;53.292;6.000;2023-02-23T09:36:16;10.10;81.50
56538;DHT22;42435;53.292;6.000;2023-02-23T09:38:43;10.10;81.40
56538;DHT22;42435;53.292;6.000;2023-02-23T09:43:55;10.20;81.10
56538;DHT22;42435;53.292;6.000;2023-02-23T09:49:28;10.10;80.70
56538;DHT22;42435;53.292;6.000;2023-02-23T09:51:58;10.00;80.50
56538;DHT22;42435;53.292;6.000;2023-02-23T09:54:32;10.00;80.50
56538;DHT22;42435;53.292;6.000;2023-02-23T09:57:02;9.90;80.70
56538;DHT22;42435;53.292;6.000;2023-02-23T09:59:29;10.00;80.70
56538;DHT22;42435;53.292;6.000;2023-02-23T10:04:58;10.00;80.70
56538;DHT22;42435;53.292;6.000;2023-02-23T10:07:52;10.00;80.50
56538;DHT22;42435;53.292;6.000;2023-02-23T10:16:29;10.00;80.30
56538;DHT22;42435;53.292;6.000;2023-02-23T10:19:12;10.00;80.20
56538;DHT22;42435;53.292;6.000;2023-02-23T10:21:42;9.90;80.00
56538;DHT22;42435;53.292;6.000;2023-02-23T10:24:18;9.90;80.10
56538;DHT22;42435;53.292;6.000;2023-02-23T10:26:52;9.90;80.10
56538;DHT22;42435;53.292;6.000;2023-02-23T10:29:34;10.00;80.10
56538;DHT22;42435;53.292;6.000;2023-02-23T10:32:28;9.90;79.90
56538;DHT22;42435;53.292;6.000;2023-02-23T10:34:53;9.90;79.90
56538;DHT22;42435;53.292;6.000;2023-02-23T10:37:23;10.00;79.90
56538;DHT22;42435;53.292;6.000;2023-02-23T10:39:49;10.00;79.90
56538;DHT22;42435;53.292;6.000;2023-02-23T10:42:26;10.00;79.80
56538;DHT22;42435;53.292;6.000;2023-02-23T10:44:58;10.00;79.80
56538;DHT22;42435;53.292;6.000;2023-02-23T10:47:27;10.00;79.70
56538;DHT22;42435;53.292;6.000;2023-02-23T10:49:56;10.00;79.60
56538;DHT22;42435;53.292;6.000;2023-02-23T10:54:54;10.00;79.60
56538;DHT22;42435;53.292;6.000;2023-02-23T10:57:29;10.00;79.50
56538;DHT22;42435;53.292;6.000;2023-02-23T11:02:46;9.90;79.70
56538;DHT22;42435;53.292;6.000;2023-02-23T11:08:09;9.90;79.90
56538;DHT22;42435;53.292;6.000;2023-02-23T11:10:35;10.00;80.00
56538;DHT22;42435;53.292;6.000;2023-02-23T11:13:01;10.00;79.90
56538;DHT22;42435;53.292;6.000;2023-02-23T11:15:32;10.00;80.00
56538;DHT22;42435;53.292;6.000;2023-02-23T11:18:05;10.00;80.10
56538;DHT22;42435;53.292;6.000;2023-02-23T11:20:39;10.00;80.20
56538;DHT22;42435;53.292;6.000;2023-02-23T11:25:35;10.00;80.10
56538;DHT22;42435;53.292;6.000;2023-02-23T11:28:01;9.90;80.10
56538;DHT22;42435;53.292;6.000;2023-02-23T11:30:34;9.90;80.20
56538;DHT22;42435;53.292;6.000;2023-02-23T11:33:02;9.90;80.40
56538;DHT22;42435;53.292;6.000;2023-02-23T11:35:35;9.90;80.50
56538;DHT22;42435;53.292;6.000;2023-02-23T11:41:16;9.80;81.00
56538;DHT22;42435;53.292;6.000;2023-02-23T11:43:58;9.80;81.00
56538;DHT22;42435;53.292;6.000;2023-02-23T11:46:26;9.70;81.10
56538;DHT22;42435;53.292;6.000;2023-02-23T11:49:00;9.60;81.20
56538;DHT22;42435;53.292;6.000;2023-02-23T11:51:30;9.50;81.30
56538;DHT22;42435;53.292;6.000;2023-02-23T11:53:58;9.30;81.40
56538;DHT22;42435;53.292;6.000;2023-02-23T11:56:25;9.20;81.60
56538;DHT22;42435;53.292;6.000;2023-02-23T12:01:22;9.00;82.10
56538;DHT22;42435;53.292;6.000;2023-02-23T12:03:52;8.90;82.30
56538;DHT22;42435;53.292;6.000;2023-02-23T12:06:29;8.80;82.40
56538;DHT22;42435;53.292;6.000;2023-02-23T12:09:25;8.80;82.70
56538;DHT22;42435;53.292;6.000;2023-02-23T12:12:00;8.70;82.80
56538;DHT22;42435;53.292;6.000;2023-02-23T12:14:36;8.70;82.90
56538;DHT22;42435;53.292;6.000;2023-02-23T12:17:26;8.70;82.90
56538;DHT22;42435;53.292;6.000;2023-02-23T12:20:19;8.70;82.70
56538;DHT22;42435;53.292;6.000;2023-02-23T12:22:50;8.60;82.60
56538;DHT22;42435;53.292;6.000;2023-02-23T12:25:27;8.60;82.50
56538;DHT22;42435;53.292;6.000;2023-02-23T12:28:21;8.60;82.50
56538;DHT22;42435;53.292;6.000;2023-02-23T12:30:58;8.50;82.70
56538;DHT22;42435;53.292;6.000;2023-02-23T12:33:41;8.50;82.50
56538;DHT22;42435;53.292;6.000;2023-02-23T12:39:02;8.50;82.30
56538;DHT22;42435;53.292;6.000;2023-02-23T12:46:54;8.40;81.70
56538;DHT22;42435;53.292;6.000;2023-02-23T12:49:31;8.40;81.70
56538;DHT22;42435;53.292;6.000;2023-02-23T12:52:14;8.40;81.70
56538;DHT22;42435;53.292;6.000;2023-02-23T12:54:44;8.40;81.40
56538;DHT22;42435;53.292;6.000;2023-02-23T12:57:34;8.40;80.80
56538;DHT22;42435;53.292;6.000;2023-02-23T13:00:34;8.50;80.70
56538;DHT22;42435;53.292;6.000;2023-02-23T13:06:05;8.60;79.80
56538;DHT22;42435;53.292;6.000;2023-02-23T13:08:59;8.50;79.70
56538;DHT22;42435;53.292;6.000;2023-02-23T13:17:43;8.50;79.00
56538;DHT22;42435;53.292;6.000;2023-02-23T13:20:25;8.50;79.20
56538;DHT22;42435;53.292;6.000;2023-02-23T13:28:30;8.30;80.00
56538;DHT22;42435;53.292;6.000;2023-02-23T13:30:58;8.20;80.20
56538;DHT22;42435;53.292;6.000;2023-02-23T13:33:26;8.20;80.60
56538;DHT22;42435;53.292;6.000;2023-02-23T13:35:54;8.10;80.70
56538;DHT22;42435;53.292;6.000;2023-02-23T13:38:27;8.00;80.80
56538;DHT22;42435;53.292;6.000;2023-02-23T13:41:12;8.00;80.80
56538;DHT22;42435;53.292;6.000;2023-02-23T13:44:00;8.00;81.10
56538;DHT22;42435;53.292;6.000;2023-02-23T13:49:36;7.90;81.20
56538;DHT22;42435;53.292;6.000;2023-02-23T13:52:19;7.90;81.00
56538;DHT22;42435;53.292;6.000;2023-02-23T13:54:57;7.90;80.90
56538;DHT22;42435;53.292;6.000;2023-02-23T13:57:29;7.90;80.90
56538;DHT22;42435;53.292;6.000;2023-02-23T13:59:56;7.90;81.00
56538;DHT22;42435;53.292;6.000;2023-02-23T14:02:38;7.90;81.20
56538;DHT22;42435;53.292;6.000;2023-02-23T14:07:52;7.90;81.10
56538;DHT22;42435;53.292;6.000;2023-02-23T14:10:34;7.80;80.90
56538;DHT22;42435;53.292;6.000;2023-02-23T14:15:48;7.70;81.10
56538;DHT22;42435;53.292;6.000;2023-02-23T14:23:28;7.60;81.20
56538;DHT22;42435;53.292;6.000;2023-02-23T14:26:12;7.60;80.80
56538;DHT22;42435;53.292;6.000;2023-02-23T14:28:40;7.60;80.50
56538;DHT22;42435;53.292;6.000;2023-02-23T14:41:48;7.70;78.70
56538;DHT22;42435;53.292;6.000;2023-02-23T14:44:17;7.70;77.70
56538;DHT22;42435;53.292;6.000;2023-02-23T14:47:12;7.70;77.30
56538;DHT22;42435;53.292;6.000;2023-02-23T14:49:44;7.70;77.00
56538;DHT22;42435;53.292;6.000;2023-02-23T14:52:22;7.70;76.90
56538;DHT22;42435;53.292;6.000;2023-02-23T14:54:50;7.70;76.70
56538;DHT22;42435;53.292;6.000;2023-02-23T14:57:17;7.70;76.70
56538;DHT22;42435;53.292;6.000;2023-02-23T14:59:44;7.80;76.30
56538;DHT22;42435;53.292;6.000;2023-02-23T15:02:16;7.80;76.30
56538;DHT22;42435;53.292;6.000;2023-02-23T15:04:42;7.80;76.30
56538;DHT22;42435;53.292;6.000;2023-02-23T15:07:20;7.90;75.90
56538;DHT22;42435;53.292;6.000;2023-02-23T15:09:50;7.90;75.90
56538;DHT22;42435;53.292;6.000;2023-02-23T15:12:23;7.90;75.70
56538;DHT22;42435;53.292;6.000;2023-02-23T15:14:52;7.90;75.40
56538;DHT22;42435;53.292;6.000;2023-02-23T15:17:23;7.90;74.60
56538;DHT22;42435;53.292;6.000;2023-02-23T15:19:54;7.90;74.10
56538;DHT22;42435;53.292;6.000;2023-02-23T15:22:26;7.90;74.30
56538;DHT22;42435;53.292;6.000;2023-02-23T15:24:56;7.80;73.80
56538;DHT22;42435;53.292;6.000;2023-02-23T15:27:38;7.80;73.90
56538;DHT22;42435;53.292;6.000;2023-02-23T15:33:24;7.90;74.10
56538;DHT22;42435;53.292;6.000;2023-02-23T15:36:19;7.90;73.40
56538;DHT22;42435;53.292;6.000;2023-02-23T15:38:49;7.80;73.40
56538;DHT22;42435;53.292;6.000;2023-02-23T15:41:30;7.80;73.30
56538;DHT22;42435;53.292;6.000;2023-02-23T15:44:19;7.80;73.10
56538;DHT22;42435;53.292;6.000;2023-02-23T15:46:51;7.70;73.10
56538;DHT22;42435;53.292;6.000;2023-02-23T15:49:18;7.70;73.00
56538;DHT22;42435;53.292;6.000;2023-02-23T15:51:50;7.70;72.30
56538;DHT22;42435;53.292;6.000;2023-02-23T15:54:21;7.70;72.20
56538;DHT22;42435;53.292;6.000;2023-02-23T15:56:53;7.60;71.80
56538;DHT22;42435;53.292;6.000;2023-02-23T15:59:32;7.60;71.30
56538;DHT22;42435;53.292;6.000;2023-02-23T16:02:00;7.50;71.10
56538;DHT22;42435;53.292;6.000;2023-02-23T16:04:38;7.50;71.00
56538;DHT22;42435;53.292;6.000;2023-02-23T16:07:19;7.40;70.50
56538;DHT22;42435;53.292;6.000;2023-02-23T16:10:38;7.40;70.30
56538;DHT22;42435;53.292;6.000;2023-02-23T16:12:37;7.40;70.40
56538;DHT22;42435;53.292;6.000;2023-02-23T16:17:57;7.20;70.40
56538;DHT22;42435;53.292;6.000;2023-02-23T16:22:55;7.20;70.20
56538;DHT22;42435;53.292;6.000;2023-02-23T16:25:24;7.10;70.30
56538;DHT22;42435;53.292;6.000;2023-02-23T16:30:38;7.10;70.50
56538;DHT22;42435;53.292;6.000;2023-02-23T16:33:22;7.20;70.70
56538;DHT22;42435;53.292;6.000;2023-02-23T16:36:14;7.20;70.90
56538;DHT22;42435;53.292;6.000;2023-02-23T16:39:02;7.20;70.90
56538;DHT22;42435;53.292;6.000;2023-02-23T16:41:30;7.30;71.00
56538;DHT22;42435;53.292;6.000;2023-02-23T16:43:59;7.20;70.40
56538;DHT22;42435;53.292;6.000;2023-02-23T16:46:29;7.20;70.00
56538;DHT22;42435;53.292;6.000;2023-02-23T16:48:56;7.20;69.80
56538;DHT22;42435;53.292;6.000;2023-02-23T16:51:35;7.10;70.00
56538;DHT22;42435;53.292;6.000;2023-02-23T16:54:01;7.00;70.10
56538;DHT22;42435;53.292;6.000;2023-02-23T16:56:28;7.00;70.30
56538;DHT22;42435;53.292;6.000;2023-02-23T16:58:59;6.90;70.20
56538;DHT22;42435;53.292;6.000;2023-02-23T17:01:25;6.90;70.50
56538;DHT22;42435;53.292;6.000;2023-02-23T17:03:50;6.90;71.00
56538;DHT22;42435;53.292;6.000;2023-02-23T17:06:18;6.80;71.60
56538;DHT22;42435;53.292;6.000;2023-02-23T17:08:43;6.70;72.10
56538;DHT22;42435;53.292;6.000;2023-02-23T17:11:09;6.70;72.70
56538;DHT22;42435;53.292;6.000;2023-02-23T17:13:35;6.60;73.10
56538;DHT22;42435;53.292;6.000;2023-02-23T17:16:05;6.60;73.40
56538;DHT22;42435;53.292;6.000;2023-02-23T17:18:34;6.60;73.50
56538;DHT22;42435;53.292;6.000;2023-02-23T17:21:04;6.60;73.50
56538;DHT22;42435;53.292;6.000;2023-02-23T17:23:32;6.60;73.60
56538;DHT22;42435;53.292;6.000;2023-02-23T17:26:23;6.60;73.50
56538;DHT22;42435;53.292;6.000;2023-02-23T17:28:50;6.60;73.50
56538;DHT22;42435;53.292;6.000;2023-02-23T17:31:17;6.50;73.40
56538;DHT22;42435;53.292;6.000;2023-02-23T17:33:44;6.50;73.30
56538;DHT22;42435;53.292;6.000;2023-02-23T17:36:13;6.50;73.30
56538;DHT22;42435;53.292;6.000;2023-02-23T17:38:39;6.50;73.30
56538;DHT22;42435;53.292;6.000;2023-02-23T17:41:16;6.40;73.30
56538;DHT22;42435;53.292;6.000;2023-02-23T17:43:42;6.40;73.30
56538;DHT22;42435;53.292;6.000;2023-02-23T17:46:08;6.30;73.40
56538;DHT22;42435;53.292;6.000;2023-02-23T17:48:34;6.20;73.50
56538;DHT22;42435;53.292;6.000;2023-02-23T17:51:06;6.20;73.60
56538;DHT22;42435;53.292;6.000;2023-02-23T17:53:34;6.20;73.70
56538;DHT22;42435;53.292;6.000;2023-02-23T17:55:59;6.10;73.90
56538;DHT22;42435;53.292;6.000;2023-02-23T17:58:25;6.00;74.10
56538;DHT22;42435;53.292;6.000;2023-02-23T18:01:00;6.10;74.20
56538;DHT22;42435;53.292;6.000;2023-02-23T18:03:27;6.10;74.40
56538;DHT22;42435;53.292;6.000;2023-02-23T18:06:08;6.00;74.50
56538;DHT22;42435;53.292;6.000;2023-02-23T18:08:35;6.10;74.60
56538;DHT22;42435;53.292;6.000;2023-02-23T18:11:01;6.00;74.60
56538;DHT22;42435;53.292;6.000;2023-02-23T18:13:29;6.00;74.70
56538;DHT22;42435;53.292;6.000;2023-02-23T18:15:59;6.00;74.80
56538;DHT22;42435;53.292;6.000;2023-02-23T18:18:25;6.10;74.80
56538;DHT22;42435;53.292;6.000;2023-02-23T18:20:53;6.10;74.70
56538;DHT22;42435;53.292;6.000;2023-02-23T18:23:19;6.10;74.40